createdAt,value
2019-02-23T00:00:06.991Z,82.27
2019-02-23T00:02:35.496Z,81.97
2019-02-23T00:05:03.989Z,81.97
2019-02-23T00:07:32.785Z,80.64
2019-02-23T00:10:01.284Z,81.55
2019-02-23T00:12:29.775Z,81.55
2019-02-23T00:14:58.277Z,81.35
2019-02-23T00:17:26.769Z,80.50
2019-02-23T00:19:55.305Z,80.25
2019-02-23T00:22:23.800Z,80.25
2019-02-23T00:24:52.290Z,79.45
2019-02-23T00:27:20.804Z,80.00
2019-02-23T00:29:49.307Z,79.35
2019-02-23T00:32:17.843Z,80.13
2019-02-23T00:34:46.330Z,79.98
2019-02-23T00:37:14.823Z,79.18
2019-02-23T00:39:43.332Z,79.72
2019-02-23T00:42:11.825Z,80.10
2019-02-23T00:44:40.363Z,79.15
2019-02-23T00:47:08.858Z,80.25
2019-02-23T00:49:37.353Z,80.58
2019-02-23T00:52:05.861Z,80.91
2019-02-23T00:54:34.365Z,81.42
2019-02-23T00:57:02.906Z,81.61
2019-02-23T00:59:31.401Z,81.92
2019-02-23T01:01:59.893Z,81.73
2019-02-23T01:04:28.420Z,81.37
2019-02-23T01:06:56.920Z,80.79
2019-02-23T01:09:25.476Z,81.65
2019-02-23T01:11:53.976Z,81.78
2019-02-23T01:14:22.479Z,81.77
2019-02-23T01:16:50.982Z,81.98
2019-02-23T01:19:19.478Z,81.42
2019-02-23T01:21:48.028Z,80.95
2019-02-23T01:24:16.536Z,80.53
2019-02-23T01:26:45.043Z,80.34
2019-02-23T01:29:13.551Z,81.10
2019-02-23T01:31:42.068Z,81.20
2019-02-23T01:34:10.603Z,81.91
2019-02-23T01:36:39.089Z,80.73
2019-02-23T01:39:07.586Z,81.79
2019-02-23T01:41:36.090Z,83.11
2019-02-23T01:44:04.585Z,83.01
2019-02-23T01:46:33.117Z,84.03
2019-02-23T01:49:01.615Z,84.38
2019-02-23T01:51:30.109Z,83.41
2019-02-23T01:53:58.618Z,82.81
2019-02-23T01:56:27.118Z,83.09
2019-02-23T01:58:55.679Z,82.85
2019-02-23T02:01:24.193Z,82.73
2019-02-23T02:03:52.671Z,82.12
2019-02-23T02:06:21.182Z,81.22
2019-02-23T02:08:49.676Z,81.45
2019-02-23T02:11:18.419Z,80.34
2019-02-23T02:13:46.915Z,81.00
2019-02-23T02:16:15.417Z,81.30
2019-02-23T02:18:44.127Z,81.52
2019-02-23T02:21:12.626Z,80.00
2019-02-23T02:23:41.166Z,81.13
2019-02-23T02:26:09.673Z,80.57
2019-02-23T02:28:38.171Z,81.36
2019-02-23T02:31:06.689Z,81.78
2019-02-23T02:33:38.309Z,82.40
2019-02-23T02:36:06.849Z,82.61
2019-02-23T02:38:35.349Z,82.08
2019-02-23T02:41:03.852Z,83.50
2019-02-23T02:43:32.358Z,83.50
2019-02-23T02:46:00.862Z,84.07
2019-02-23T02:48:29.481Z,83.21
2019-02-23T02:50:57.927Z,83.04
2019-02-23T02:53:26.424Z,84.07
2019-02-23T02:55:54.957Z,85.62
2019-02-23T02:58:23.437Z,88.19
2019-02-23T03:00:51.944Z,89.14
2019-02-23T03:03:20.462Z,91.27
2019-02-23T03:05:48.964Z,89.98
2019-02-23T03:08:17.460Z,87.78
2019-02-23T03:10:46.016Z,88.05
2019-02-23T03:13:14.516Z,87.78
2019-02-23T03:15:43.030Z,87.76
2019-02-23T03:18:11.579Z,86.74
2019-02-23T03:20:40.081Z,87.08
2019-02-23T03:23:08.585Z,85.98
2019-02-23T03:25:37.085Z,85.71
2019-02-23T03:28:05.592Z,85.97
2019-02-23T03:30:34.145Z,85.14
2019-02-23T03:33:03.300Z,85.48
2019-02-23T03:35:31.813Z,85.04
2019-02-23T03:38:00.329Z,85.28
2019-02-23T03:40:28.835Z,84.35
2019-02-23T03:42:57.374Z,84.76
2019-02-23T03:45:25.880Z,84.92
2019-02-23T03:47:54.407Z,85.68
2019-02-23T03:50:22.919Z,84.06
2019-02-23T03:52:51.419Z,84.30
2019-02-23T03:55:19.968Z,84.92
2019-02-23T03:57:48.465Z,84.46
2019-02-23T04:00:16.963Z,83.45
2019-02-23T04:02:45.468Z,84.99
2019-02-23T04:05:13.976Z,85.16
2019-02-23T04:07:42.531Z,84.40
2019-02-23T04:10:11.043Z,84.92
2019-02-23T04:12:39.544Z,83.75
2019-02-23T04:15:08.150Z,84.29
2019-02-23T04:17:36.653Z,83.67
2019-02-23T04:20:07.209Z,84.07
2019-02-23T04:22:35.711Z,84.61
2019-02-23T04:25:05.120Z,82.87
2019-02-23T04:27:33.633Z,82.62
2019-02-23T04:30:02.134Z,83.16
2019-02-23T04:32:30.676Z,84.08
2019-02-23T04:34:59.175Z,83.77
2019-02-23T04:37:27.675Z,82.95
2019-02-23T04:39:56.201Z,82.55
2019-02-23T04:42:24.698Z,82.44
2019-02-23T04:44:53.244Z,82.51
2019-02-23T04:47:21.756Z,83.98
2019-02-23T04:49:53.375Z,83.61
2019-02-23T04:52:21.903Z,84.01
2019-02-23T04:54:50.426Z,84.00
2019-02-23T04:57:19.302Z,83.14
2019-02-23T04:59:47.802Z,82.94
2019-02-23T05:02:16.305Z,83.96
2019-02-23T05:04:44.821Z,82.08
2019-02-23T05:07:13.327Z,82.55
2019-02-23T05:09:41.910Z,81.73
2019-02-23T05:12:10.432Z,82.27
2019-02-23T05:14:38.938Z,81.41
2019-02-23T05:17:07.439Z,80.51
2019-02-23T05:19:35.942Z,81.56
2019-02-23T05:22:04.487Z,81.60
2019-02-23T05:24:32.994Z,81.08
2019-02-23T05:27:01.499Z,81.93
2019-02-23T05:29:30.014Z,81.27
2019-02-23T05:31:58.513Z,80.73
2019-02-23T05:34:27.059Z,81.07
2019-02-23T05:36:55.557Z,80.44
2019-02-23T05:39:24.069Z,80.04
2019-02-23T05:41:52.569Z,80.23
2019-02-23T05:44:21.063Z,79.74
2019-02-23T05:46:50.840Z,79.67
2019-02-23T05:49:19.337Z,80.17
2019-02-23T05:51:47.842Z,79.38
2019-02-23T05:54:16.350Z,79.31
2019-02-23T05:56:44.859Z,80.10
2019-02-23T05:59:13.403Z,78.89
2019-02-23T06:01:41.913Z,78.95
2019-02-23T06:04:10.412Z,80.08
2019-02-23T06:06:38.928Z,77.86
2019-02-23T06:09:07.429Z,78.47
2019-02-23T06:11:35.998Z,78.08
2019-02-23T06:14:04.511Z,77.12
2019-02-23T06:16:33.019Z,76.93
2019-02-23T06:19:01.545Z,77.57
2019-02-23T06:21:30.054Z,76.44
2019-02-23T06:23:58.645Z,76.53
2019-02-23T06:26:27.150Z,77.55
2019-02-23T06:28:55.651Z,78.42
2019-02-23T06:31:24.166Z,77.11
2019-02-23T06:33:52.672Z,77.08
2019-02-23T06:36:21.215Z,76.60
2019-02-23T06:38:49.716Z,75.95
2019-02-23T06:41:18.215Z,75.98
2019-02-23T06:43:46.732Z,76.58
2019-02-23T06:46:15.234Z,76.67
2019-02-23T06:48:43.806Z,75.45
2019-02-23T06:51:12.303Z,76.40
2019-02-23T06:53:40.802Z,76.53
2019-02-23T06:56:09.314Z,75.92
2019-02-23T06:58:37.812Z,75.90
2019-02-23T07:01:06.430Z,75.42
2019-02-23T07:03:34.951Z,76.72
2019-02-23T07:06:03.463Z,76.10
2019-02-23T07:08:31.972Z,76.61
2019-02-23T07:11:00.470Z,77.09
2019-02-23T07:13:29.019Z,75.96
2019-02-23T07:15:57.524Z,76.60
2019-02-23T07:18:26.032Z,77.82
2019-02-23T07:20:54.555Z,78.15
2019-02-23T07:23:23.059Z,78.21
2019-02-23T07:25:51.615Z,77.09
2019-02-23T07:28:20.122Z,77.11
2019-02-23T07:30:48.624Z,76.75
2019-02-23T07:33:29.539Z,75.51
2019-02-23T07:35:47.369Z,74.07
2019-02-23T07:38:15.922Z,74.46
2019-02-23T07:40:44.427Z,74.31
2019-02-23T07:43:12.952Z,73.14
2019-02-23T07:45:41.466Z,72.37
2019-02-23T07:48:09.978Z,72.19
2019-02-23T07:50:38.526Z,71.96
2019-02-23T07:53:07.044Z,71.87
2019-02-23T07:55:35.623Z,71.53
2019-02-23T07:58:04.143Z,70.81
2019-02-23T08:00:32.647Z,69.35
2019-02-23T08:03:01.188Z,69.43
2019-02-23T08:05:29.688Z,67.55
2019-02-23T08:07:58.200Z,66.85
2019-02-23T08:10:26.717Z,66.77
2019-02-23T08:12:55.218Z,67.82
2019-02-23T08:15:23.764Z,67.53
2019-02-23T08:17:52.277Z,66.29
2019-02-23T08:20:20.777Z,66.38
2019-02-23T08:22:49.290Z,65.92
2019-02-23T08:25:17.786Z,65.07
2019-02-23T08:27:46.337Z,65.06
2019-02-23T08:30:16.053Z,63.21
2019-02-23T08:32:44.561Z,64.25
2019-02-23T08:35:13.084Z,63.57
2019-02-23T08:37:41.596Z,63.45
2019-02-23T08:40:12.722Z,63.27
2019-02-23T08:42:41.246Z,62.07
2019-02-23T08:45:10.347Z,61.15
2019-02-23T08:47:38.858Z,61.04
2019-02-23T08:50:13.203Z,57.98
2019-02-23T08:52:49.144Z,58.41
2019-02-23T08:55:11.924Z,59.04
2019-02-23T08:57:40.479Z,57.86
2019-02-23T09:00:11.943Z,58.91
2019-02-23T09:02:40.445Z,57.70
2019-02-23T09:05:10.444Z,58.39
2019-02-23T09:07:38.938Z,59.12
2019-02-23T09:10:10.509Z,58.35
2019-02-23T09:12:39.077Z,57.64
2019-02-23T09:15:08.383Z,58.03
2019-02-23T09:17:36.887Z,57.46
2019-02-23T09:20:07.700Z,58.86
2019-02-23T09:22:36.250Z,56.96
2019-02-23T09:25:06.062Z,57.31
2019-02-23T09:27:34.574Z,56.57
2019-02-23T09:30:03.072Z,56.70
2019-02-23T09:32:31.624Z,57.40
2019-02-23T09:35:00.325Z,56.71
2019-02-23T09:37:28.809Z,57.37
2019-02-23T09:39:57.325Z,56.85
2019-02-23T09:42:25.839Z,56.92
2019-02-23T09:44:54.408Z,56.72
2019-02-23T09:47:22.910Z,57.20
2019-02-23T09:49:51.420Z,57.99
2019-02-23T09:52:19.945Z,55.67
2019-02-23T09:54:48.457Z,56.93
2019-02-23T09:57:17.010Z,58.87
2019-02-23T09:59:45.520Z,59.30
2019-02-23T10:02:14.026Z,56.42
2019-02-23T10:04:42.536Z,56.42
2019-02-23T10:07:11.051Z,57.90
2019-02-23T10:09:39.598Z,57.89
2019-02-23T10:12:08.103Z,54.47
2019-02-23T10:14:36.607Z,53.77
2019-02-23T10:17:05.114Z,56.16
2019-02-23T10:19:33.614Z,56.16
2019-02-23T10:22:02.177Z,55.72
2019-02-23T10:24:30.679Z,53.16
2019-02-23T10:26:59.183Z,53.16
2019-02-23T10:29:27.697Z,54.54
2019-02-23T10:31:56.199Z,55.44
2019-02-23T10:34:26.307Z,55.02
2019-02-23T10:36:54.817Z,54.72
2019-02-23T10:39:23.315Z,54.72
2019-02-23T10:41:51.828Z,55.75
2019-02-23T10:44:20.333Z,55.75
2019-02-23T10:46:48.889Z,54.93
2019-02-23T10:49:18.886Z,53.77
2019-02-23T10:51:47.397Z,53.39
2019-02-23T10:54:15.906Z,53.39
2019-02-23T10:56:44.403Z,55.92
2019-02-23T10:59:12.961Z,54.11
2019-02-23T11:01:41.461Z,53.67
2019-02-23T11:04:09.959Z,51.94
2019-02-23T11:06:38.622Z,51.56
2019-02-23T11:09:08.767Z,54.07
2019-02-23T11:11:37.276Z,54.07
2019-02-23T11:14:05.777Z,51.71
2019-02-23T11:16:34.279Z,51.71
2019-02-23T11:19:04.362Z,54.12
2019-02-23T11:21:32.871Z,54.12
2019-02-23T11:24:01.437Z,51.99
2019-02-23T11:26:29.944Z,51.99
2019-02-23T11:28:58.441Z,51.15
2019-02-23T11:31:26.967Z,53.52
2019-02-23T11:33:55.472Z,53.52
2019-02-23T11:36:24.044Z,51.23
2019-02-23T11:38:52.554Z,49.16
2019-02-23T11:41:21.059Z,50.97
2019-02-23T11:43:49.588Z,50.44
2019-02-23T11:46:18.104Z,49.94
2019-02-23T11:48:46.649Z,51.76
2019-02-23T11:51:15.158Z,49.97
2019-02-23T11:53:54.397Z,49.83
2019-02-23T11:56:13.915Z,48.88
2019-02-23T11:58:42.426Z,48.71
2019-02-23T12:01:10.964Z,49.79
2019-02-23T12:03:39.465Z,48.55
2019-02-23T12:06:07.970Z,49.06
2019-02-23T12:08:36.548Z,48.97
2019-02-23T12:11:05.048Z,48.97
2019-02-23T12:13:33.591Z,49.89
2019-02-23T12:16:02.096Z,50.84
2019-02-23T12:18:30.593Z,51.49
2019-02-23T12:20:59.141Z,51.49
2019-02-23T12:23:27.641Z,50.79
2019-02-23T12:25:56.182Z,50.79
2019-02-23T12:28:24.683Z,49.73
2019-02-23T12:30:53.185Z,52.05
2019-02-23T12:33:21.698Z,52.05
2019-02-23T12:35:50.196Z,50.67
2019-02-23T12:38:18.750Z,51.14
2019-02-23T12:40:47.265Z,48.88
2019-02-23T12:43:15.772Z,50.59
2019-02-23T12:45:44.282Z,50.59
2019-02-23T12:48:12.771Z,51.06
2019-02-23T12:50:41.320Z,50.03
2019-02-23T12:53:09.832Z,52.32
2019-02-23T12:55:38.337Z,49.57
2019-02-23T12:58:06.867Z,49.91
2019-02-23T13:00:35.374Z,49.91
2019-02-23T13:03:03.938Z,47.83
2019-02-23T13:05:32.466Z,49.74
2019-02-23T13:08:00.969Z,49.74
2019-02-23T13:10:29.485Z,51.10
2019-02-23T13:13:07.113Z,51.23
2019-02-23T13:15:38.778Z,49.57
2019-02-23T13:18:33.183Z,51.11
2019-02-23T13:21:10.079Z,51.34
2019-02-23T13:24:00.095Z,52.57
2019-02-23T13:26:56.210Z,53.15
2019-02-23T13:29:44.044Z,53.15
2019-02-23T13:32:41.183Z,52.77
2019-02-23T13:35:25.057Z,54.31
2019-02-23T13:38:13.396Z,52.81
2019-02-23T13:41:12.221Z,51.27
2019-02-23T13:43:46.645Z,51.27
2019-02-23T13:46:18.284Z,51.23
2019-02-23T13:49:05.057Z,51.90
2019-02-23T13:51:49.007Z,54.24
2019-02-23T13:54:23.332Z,52.75
2019-02-23T13:57:00.957Z,51.81
2019-02-23T13:59:55.168Z,51.81
2019-02-23T14:02:26.797Z,52.15
2019-02-23T14:05:01.414Z,51.81
2019-02-23T14:07:35.840Z,51.94
2019-02-23T14:10:19.779Z,52.78
2019-02-23T14:12:51.411Z,53.12
2019-02-23T14:15:45.863Z,52.19
2019-02-23T14:18:36.893Z,53.86
2019-02-23T14:21:37.499Z,53.43
2019-02-23T14:24:14.925Z,51.88
2019-02-23T14:27:10.880Z,52.57
2019-02-23T14:29:48.127Z,52.08
2019-02-23T14:32:25.723Z,53.23
2019-02-23T14:35:19.987Z,52.58
2019-02-23T14:37:54.992Z,51.82
2019-02-23T14:40:32.446Z,53.65
2019-02-23T14:43:21.999Z,54.37
2019-02-23T14:45:59.129Z,53.61
2019-02-23T14:48:55.039Z,54.92
2019-02-23T14:51:34.985Z,54.18
2019-02-23T14:54:21.675Z,55.66
2019-02-23T14:57:26.506Z,54.30
2019-02-23T15:00:04.185Z,55.78
2019-02-23T15:02:54.099Z,55.22
2019-02-23T15:05:37.634Z,56.90
2019-02-23T15:08:21.199Z,55.93
2019-02-23T15:11:01.655Z,56.86
2019-02-23T15:13:51.175Z,57.38
2019-02-23T15:16:47.235Z,57.74
2019-02-23T15:19:30.460Z,57.71
2019-02-23T15:22:17.055Z,58.89
2019-02-23T15:24:54.348Z,57.97
2019-02-23T15:27:34.862Z,56.47
2019-02-23T15:30:15.043Z,57.58
2019-02-23T15:33:06.310Z,57.27
2019-02-23T15:35:56.089Z,57.33
2019-02-23T15:38:30.467Z,58.43
2019-02-23T15:41:14.226Z,59.38
2019-02-23T15:44:05.847Z,59.37
2019-02-23T15:47:12.294Z,58.61
2019-02-23T15:49:41.397Z,60.42
2019-02-23T15:52:10.019Z,59.39
2019-02-23T15:54:38.554Z,59.66
2019-02-23T15:57:07.070Z,59.57
2019-02-23T15:59:35.635Z,58.95
2019-02-23T16:02:04.249Z,60.37
2019-02-23T16:04:32.768Z,60.21
2019-02-23T16:07:01.273Z,60.94
2019-02-23T16:09:29.795Z,60.12
2019-02-23T16:11:58.312Z,61.62
2019-02-23T16:14:26.862Z,60.31
2019-02-23T16:16:55.390Z,61.06
2019-02-23T16:19:23.888Z,61.36
2019-02-23T16:21:53.089Z,60.17
2019-02-23T16:24:21.703Z,60.29
2019-02-23T16:26:50.256Z,60.59
2019-02-23T16:29:18.760Z,60.39
2019-02-23T16:31:47.279Z,59.05
2019-02-23T16:34:15.798Z,59.84
2019-02-23T16:36:44.370Z,60.07
2019-02-23T16:39:12.916Z,60.47
2019-02-23T16:41:41.437Z,60.39
2019-02-23T16:44:09.955Z,60.97
2019-02-23T16:46:38.521Z,61.38
2019-02-23T16:49:07.004Z,59.81
2019-02-23T16:51:35.548Z,60.10
2019-02-23T16:54:04.069Z,59.80
2019-02-23T16:56:33.525Z,60.42
2019-02-23T16:59:02.045Z,59.63
2019-02-23T17:01:30.582Z,59.35
2019-02-23T17:03:59.134Z,59.35
2019-02-23T17:06:27.646Z,58.59
2019-02-23T17:08:56.205Z,59.47
2019-02-23T17:11:24.838Z,61.34
2019-02-23T17:13:53.347Z,60.74
2019-02-23T17:16:22.055Z,59.20
2019-02-23T17:18:50.556Z,60.94
2019-02-23T17:21:19.070Z,59.44
2019-02-23T17:23:47.627Z,60.27
2019-02-23T17:26:16.285Z,60.84
2019-02-23T17:28:44.880Z,61.28
2019-02-23T17:31:13.378Z,60.03
2019-02-23T17:33:41.897Z,59.85
2019-02-23T17:36:10.421Z,60.11
2019-02-23T17:38:38.948Z,61.32
2019-02-23T17:41:07.465Z,59.53
2019-02-23T17:43:35.977Z,60.11
2019-02-23T17:46:04.484Z,59.96
2019-02-23T17:51:01.611Z,58.60
2019-02-23T17:53:30.129Z,58.68
2019-02-23T17:55:58.648Z,59.35
2019-02-23T17:58:27.223Z,58.95
2019-02-23T18:00:56.032Z,60.10
2019-02-23T18:03:24.592Z,59.36
2019-02-23T18:05:53.121Z,59.30
2019-02-23T18:08:21.636Z,60.08
2019-02-23T18:10:50.198Z,59.73
2019-02-23T18:13:18.721Z,58.79
2019-02-23T18:15:47.231Z,59.30
2019-02-23T18:18:15.828Z,59.68
2019-02-23T18:20:44.341Z,58.87
2019-02-23T18:23:12.891Z,59.83
2019-02-23T18:25:41.407Z,58.94
2019-02-23T18:28:09.924Z,59.10
2019-02-23T18:30:38.441Z,59.58
2019-02-23T18:33:06.957Z,58.91
2019-02-23T18:35:35.528Z,58.95
2019-02-23T18:38:04.031Z,59.32
2019-02-23T18:40:32.553Z,59.72
2019-02-23T18:43:01.082Z,59.04
2019-02-23T18:45:29.592Z,59.04
2019-02-23T18:47:58.167Z,58.35
2019-02-23T18:50:26.671Z,58.11
2019-02-23T18:52:55.181Z,56.94
2019-02-23T18:55:24.052Z,56.86
2019-02-23T18:57:52.685Z,58.43
2019-02-23T19:00:24.309Z,59.05
2019-02-23T19:02:51.475Z,59.68
2019-02-23T19:05:20.008Z,60.62
2019-02-23T19:07:48.549Z,60.03
2019-02-23T19:10:17.066Z,60.11
2019-02-23T19:12:45.641Z,60.01
2019-02-23T19:15:14.453Z,60.35
2019-02-23T19:17:42.972Z,61.03
2019-02-23T19:20:13.507Z,60.47
2019-02-23T19:22:42.026Z,59.88
2019-02-23T19:25:13.297Z,60.11
2019-02-23T19:27:41.823Z,61.42
2019-02-23T19:30:14.714Z,60.07
2019-02-23T19:32:43.232Z,60.53
2019-02-23T19:35:11.743Z,61.28
2019-02-23T19:37:40.294Z,61.12
2019-02-23T19:40:09.709Z,61.83
2019-02-23T19:42:38.270Z,61.54
2019-02-23T19:45:09.363Z,62.54
2019-02-23T19:47:38.701Z,62.67
2019-02-23T19:50:10.422Z,62.34
2019-02-23T19:52:38.935Z,63.23
2019-02-23T19:55:10.553Z,62.75
2019-02-23T19:57:39.091Z,62.30
2019-02-23T20:00:09.504Z,63.42
2019-02-23T20:02:38.437Z,63.26
2019-02-23T20:05:08.871Z,62.46
2019-02-23T20:07:37.389Z,62.92
2019-02-23T20:10:08.879Z,62.79
2019-02-23T20:12:37.412Z,63.19
2019-02-23T20:15:08.065Z,62.82
2019-02-23T20:17:36.584Z,62.86
2019-02-23T20:20:06.015Z,63.34
2019-02-23T20:22:34.558Z,63.20
2019-02-23T20:25:03.095Z,62.19
2019-02-23T20:27:31.656Z,62.93
2019-02-23T20:30:00.261Z,62.18
2019-02-23T20:32:28.780Z,61.95
2019-02-23T20:34:57.314Z,62.43
2019-02-23T20:37:25.844Z,60.93
2019-02-23T20:39:54.417Z,60.62
2019-02-23T20:42:22.945Z,61.39
2019-02-23T20:44:51.482Z,60.77
2019-02-23T20:47:20.028Z,61.17
2019-02-23T20:49:50.151Z,60.80
2019-02-23T20:52:18.941Z,60.84
2019-02-23T20:54:47.555Z,60.65
2019-02-23T20:57:16.066Z,61.84
2019-02-23T20:59:44.591Z,61.06
2019-02-23T21:02:13.088Z,60.94
2019-02-23T21:04:41.628Z,60.61
2019-02-23T21:07:10.148Z,60.60
2019-02-23T21:09:38.744Z,60.71
2019-02-23T21:12:07.256Z,61.05
2019-02-23T21:14:35.775Z,60.56
2019-02-23T21:17:04.322Z,60.52
2019-02-23T21:19:32.839Z,60.11
2019-02-23T21:22:01.355Z,60.42
2019-02-23T21:24:30.014Z,59.84
2019-02-23T21:26:58.528Z,59.84
2019-02-23T21:29:27.076Z,59.84
2019-02-23T21:31:55.595Z,59.23
2019-02-23T21:34:24.105Z,58.92
2019-02-23T21:36:52.626Z,59.31
2019-02-23T21:39:21.133Z,59.38
2019-02-23T21:41:49.691Z,59.78
2019-02-23T21:44:18.293Z,60.20
2019-02-23T21:46:46.806Z,59.65
2019-02-23T21:49:15.333Z,59.79
2019-02-23T21:51:43.842Z,60.25
2019-02-23T21:54:12.404Z,59.67
2019-02-23T21:56:40.929Z,58.52
2019-02-23T21:59:09.446Z,59.13
2019-02-23T22:01:37.934Z,58.40
2019-02-23T22:04:06.442Z,58.75
2019-02-23T22:06:35.013Z,58.85
2019-02-23T22:09:03.520Z,58.92
2019-02-23T22:11:32.018Z,59.00
2019-02-23T22:14:00.531Z,58.61
2019-02-23T22:16:29.044Z,57.80
2019-02-23T22:18:57.594Z,57.47
2019-02-23T22:21:26.097Z,57.31
2019-02-23T22:23:54.606Z,57.29
2019-02-23T22:26:23.123Z,56.65
2019-02-23T22:28:51.627Z,57.61
2019-02-23T22:31:20.180Z,56.96
2019-02-23T22:33:48.708Z,57.54
2019-02-23T22:36:17.197Z,57.85
2019-02-23T22:38:45.756Z,58.59
2019-02-23T22:41:14.253Z,57.11
2019-02-23T22:43:42.759Z,57.94
2019-02-23T22:46:11.277Z,58.10
2019-02-23T22:48:39.786Z,58.05
2019-02-23T22:51:08.362Z,58.37
2019-02-23T22:53:36.875Z,57.81
2019-02-23T22:56:05.389Z,58.35
2019-02-23T22:58:33.904Z,57.88
2019-02-23T23:01:04.013Z,58.27
2019-02-23T23:03:32.563Z,58.45
2019-02-23T23:06:01.074Z,58.75
2019-02-23T23:08:29.583Z,59.67
2019-02-23T23:10:58.098Z,59.53
2019-02-23T23:13:26.609Z,59.89
2019-02-23T23:15:55.181Z,59.97
2019-02-23T23:18:23.696Z,60.10
2019-02-23T23:20:52.215Z,59.84
2019-02-23T23:23:20.735Z,60.31
2019-02-23T23:25:49.245Z,60.65
2019-02-23T23:28:17.808Z,60.51
2019-02-23T23:30:46.325Z,60.52
2019-02-23T23:33:14.825Z,61.66
2019-02-23T23:35:43.350Z,61.49
2019-02-23T23:38:11.860Z,61.14
2019-02-23T23:40:40.409Z,60.86
2019-02-23T23:43:08.936Z,61.84
2019-02-23T23:45:37.454Z,61.35
2019-02-23T23:48:05.979Z,61.63
2019-02-23T23:50:34.495Z,61.53
2019-02-23T23:53:03.049Z,61.82
2019-02-23T23:55:31.546Z,61.66
2019-02-23T23:58:00.066Z,61.95
